sensor_id;sensor_type;location;lat;lon;timestamp;pressure;altitude;pressure_sealevel;temperature;humidity
21290;BME280;10804;48.988;2.408;2023-06-14T00:00:20;100412.94;;;24.78;49.58
21290;BME280;10804;48.988;2.408;2023-06-14T00:02:48;100413.94;;;24.77;49.10
21290;BME280;10804;48.988;2.408;2023-06-14T00:05:15;100414.06;;;24.75;49.55
21290;BME280;10804;48.988;2.408;2023-06-14T00:07:42;100417.16;;;24.71;49.63
21290;BME280;10804;48.988;2.408;2023-06-14T00:10:11;100419.13;;;24.69;49.55
21290;BME280;10804;48.988;2.408;2023-06-14T00:12:40;100423.00;;;24.65;49.67
21290;BME280;10804;48.988;2.408;2023-06-14T00:15:08;100409.25;;;24.60;49.66
21290;BME280;10804;48.988;2.408;2023-06-14T00:17:36;100416.56;;;24.58;49.63
21290;BME280;10804;48.988;2.408;2023-06-14T00:20:05;100419.34;;;24.57;49.75
21290;BME280;10804;48.988;2.408;2023-06-14T00:22:33;100418.75;;;24.53;49.81
21290;BME280;10804;48.988;2.408;2023-06-14T00:25:03;100416.50;;;24.49;50.07
21290;BME280;10804;48.988;2.408;2023-06-14T00:27:31;100425.88;;;24.43;49.73
21290;BME280;10804;48.988;2.408;2023-06-14T00:29:59;100421.19;;;24.36;49.71
21290;BME280;10804;48.988;2.408;2023-06-14T00:32:27;100430.59;;;24.30;50.06
21290;BME280;10804;48.988;2.408;2023-06-14T00:34:56;100432.78;;;24.25;50.43
21290;BME280;10804;48.988;2.408;2023-06-14T00:37:23;100433.78;;;24.24;50.16
21290;BME280;10804;48.988;2.408;2023-06-14T00:39:50;100426.75;;;24.23;50.10
21290;BME280;10804;48.988;2.408;2023-06-14T00:42:23;100430.53;;;24.21;50.14
21290;BME280;10804;48.988;2.408;2023-06-14T00:44:51;100428.13;;;24.18;50.25
21290;BME280;10804;48.988;2.408;2023-06-14T00:47:20;100433.13;;;24.11;50.21
21290;BME280;10804;48.988;2.408;2023-06-14T00:49:49;100432.44;;;24.09;50.55
21290;BME280;10804;48.988;2.408;2023-06-14T00:52:18;100423.72;;;24.07;50.52
21290;BME280;10804;48.988;2.408;2023-06-14T00:54:45;100433.69;;;24.05;50.72
21290;BME280;10804;48.988;2.408;2023-06-14T00:57:13;100424.72;;;24.06;50.48
21290;BME280;10804;48.988;2.408;2023-06-14T00:59:43;100429.47;;;24.03;50.66
21290;BME280;10804;48.988;2.408;2023-06-14T01:02:11;100426.91;;;24.01;50.58
21290;BME280;10804;48.988;2.408;2023-06-14T01:05:00;100437.84;;;23.98;50.66
21290;BME280;10804;48.988;2.408;2023-06-14T01:07:34;100431.34;;;23.91;50.39
21290;BME280;10804;48.988;2.408;2023-06-14T01:10:14;100439.72;;;23.87;50.43
21290;BME280;10804;48.988;2.408;2023-06-14T01:12:53;100431.38;;;23.80;50.75
21290;BME280;10804;48.988;2.408;2023-06-14T01:15:25;100435.72;;;23.81;50.53
21290;BME280;10804;48.988;2.408;2023-06-14T01:17:53;100419.88;;;23.80;50.81
21290;BME280;10804;48.988;2.408;2023-06-14T01:20:32;100432.63;;;23.76;50.61
21290;BME280;10804;48.988;2.408;2023-06-14T01:23:05;100428.91;;;23.68;50.64
21290;BME280;10804;48.988;2.408;2023-06-14T01:25:32;100433.91;;;23.61;51.11
21290;BME280;10804;48.988;2.408;2023-06-14T01:28:03;100433.91;;;23.61;50.70
21290;BME280;10804;48.988;2.408;2023-06-14T01:30:37;100442.88;;;23.60;50.71
21290;BME280;10804;48.988;2.408;2023-06-14T01:33:05;100429.56;;;23.60;51.17
21290;BME280;10804;48.988;2.408;2023-06-14T01:35:32;100435.97;;;23.58;51.19
21290;BME280;10804;48.988;2.408;2023-06-14T01:38:02;100429.75;;;23.48;50.92
21290;BME280;10804;48.988;2.408;2023-06-14T01:40:33;100432.53;;;23.46;50.78
21290;BME280;10804;48.988;2.408;2023-06-14T01:43:02;100425.41;;;23.36;50.85
21290;BME280;10804;48.988;2.408;2023-06-14T01:45:30;100433.53;;;23.34;50.89
21290;BME280;10804;48.988;2.408;2023-06-14T01:47:59;100428.19;;;23.34;51.12
21290;BME280;10804;48.988;2.408;2023-06-14T01:50:28;100423.84;;;23.33;51.40
21290;BME280;10804;48.988;2.408;2023-06-14T01:52:57;100429.06;;;23.35;51.41
21290;BME280;10804;48.988;2.408;2023-06-14T01:55:24;100427.75;;;23.29;51.56
21290;BME280;10804;48.988;2.408;2023-06-14T01:57:53;100428.47;;;23.31;51.26
21290;BME280;10804;48.988;2.408;2023-06-14T02:00:21;100429.69;;;23.27;50.90
21290;BME280;10804;48.988;2.408;2023-06-14T02:02:52;100433.56;;;23.23;51.51
21290;BME280;10804;48.988;2.408;2023-06-14T02:05:19;100434.56;;;23.22;51.30
21290;BME280;10804;48.988;2.408;2023-06-14T02:07:48;100432.13;;;23.19;51.68
21290;BME280;10804;48.988;2.408;2023-06-14T02:10:18;100435.66;;;23.20;51.57
21290;BME280;10804;48.988;2.408;2023-06-14T02:12:47;100434.06;;;23.17;51.81
21290;BME280;10804;48.988;2.408;2023-06-14T02:15:16;100440.72;;;23.12;51.89
21290;BME280;10804;48.988;2.408;2023-06-14T02:17:45;100441.31;;;23.04;51.58
21290;BME280;10804;48.988;2.408;2023-06-14T02:20:13;100436.00;;;23.04;51.96
21290;BME280;10804;48.988;2.408;2023-06-14T02:22:41;100438.94;;;23.01;51.54
21290;BME280;10804;48.988;2.408;2023-06-14T02:25:08;100441.84;;;22.98;51.82
21290;BME280;10804;48.988;2.408;2023-06-14T02:27:35;100442.94;;;22.96;52.10
21290;BME280;10804;48.988;2.408;2023-06-14T02:30:04;100439.69;;;22.92;51.95
21290;BME280;10804;48.988;2.408;2023-06-14T02:32:34;100442.13;;;22.84;52.16
21290;BME280;10804;48.988;2.408;2023-06-14T02:35:02;100439.09;;;22.89;52.13
21290;BME280;10804;48.988;2.408;2023-06-14T02:37:31;100447.16;;;22.87;52.16
21290;BME280;10804;48.988;2.408;2023-06-14T02:39:58;100442.34;;;22.81;51.84
21290;BME280;10804;48.988;2.408;2023-06-14T02:42:26;100433.16;;;22.74;52.11
21290;BME280;10804;48.988;2.408;2023-06-14T02:44:53;100447.91;;;22.78;52.17
21290;BME280;10804;48.988;2.408;2023-06-14T02:47:21;100455.78;;;22.80;52.52
21290;BME280;10804;48.988;2.408;2023-06-14T02:49:49;100452.88;;;22.83;52.50
21290;BME280;10804;48.988;2.408;2023-06-14T02:52:17;100453.94;;;22.80;52.11
21290;BME280;10804;48.988;2.408;2023-06-14T02:54:44;100448.88;;;22.77;52.53
21290;BME280;10804;48.988;2.408;2023-06-14T02:57:13;100444.91;;;22.72;52.36
21290;BME280;10804;48.988;2.408;2023-06-14T02:59:41;100454.94;;;22.68;52.49
21290;BME280;10804;48.988;2.408;2023-06-14T03:02:09;100453.25;;;22.67;52.29
21290;BME280;10804;48.988;2.408;2023-06-14T03:04:37;100457.38;;;22.60;52.49
21290;BME280;10804;48.988;2.408;2023-06-14T03:07:10;100451.56;;;22.55;52.47
21290;BME280;10804;48.988;2.408;2023-06-14T03:09:41;100457.13;;;22.52;52.40
21290;BME280;10804;48.988;2.408;2023-06-14T03:12:11;100450.34;;;22.48;52.22
21290;BME280;10804;48.988;2.408;2023-06-14T03:14:39;100458.81;;;22.42;52.47
21290;BME280;10804;48.988;2.408;2023-06-14T03:17:07;100455.41;;;22.40;52.48
21290;BME280;10804;48.988;2.408;2023-06-14T03:19:37;100460.00;;;22.38;52.53
21290;BME280;10804;48.988;2.408;2023-06-14T03:22:05;100468.78;;;22.39;52.47
21290;BME280;10804;48.988;2.408;2023-06-14T03:24:34;100465.31;;;22.38;52.60
21290;BME280;10804;48.988;2.408;2023-06-14T03:27:05;100463.84;;;22.34;52.86
21290;BME280;10804;48.988;2.408;2023-06-14T03:29:32;100473.50;;;22.35;52.64
21290;BME280;10804;48.988;2.408;2023-06-14T03:32:01;100481.47;;;22.35;52.82
21290;BME280;10804;48.988;2.408;2023-06-14T03:34:38;100484.88;;;22.37;52.52
21290;BME280;10804;48.988;2.408;2023-06-14T03:37:06;100483.41;;;22.33;52.78
21290;BME280;10804;48.988;2.408;2023-06-14T03:39:35;100485.25;;;22.33;52.77
21290;BME280;10804;48.988;2.408;2023-06-14T03:42:04;100487.03;;;22.32;52.76
21290;BME280;10804;48.988;2.408;2023-06-14T03:44:32;100489.69;;;22.32;52.92
21290;BME280;10804;48.988;2.408;2023-06-14T03:47:00;100489.94;;;22.29;52.77
21290;BME280;10804;48.988;2.408;2023-06-14T03:49:29;100487.50;;;22.26;52.95
21290;BME280;10804;48.988;2.408;2023-06-14T03:51:56;100498.25;;;22.25;52.60
21290;BME280;10804;48.988;2.408;2023-06-14T03:54:24;100493.06;;;22.23;52.67
21290;BME280;10804;48.988;2.408;2023-06-14T03:56:55;100495.94;;;22.20;53.04
21290;BME280;10804;48.988;2.408;2023-06-14T03:59:22;100503.19;;;22.18;53.08
21290;BME280;10804;48.988;2.408;2023-06-14T04:01:50;100495.47;;;22.15;52.88
21290;BME280;10804;48.988;2.408;2023-06-14T04:04:17;100501.50;;;22.06;53.23
21290;BME280;10804;48.988;2.408;2023-06-14T04:06:45;100502.44;;;22.05;53.10
21290;BME280;10804;48.988;2.408;2023-06-14T04:09:14;100504.16;;;22.06;53.25
21290;BME280;10804;48.988;2.408;2023-06-14T04:11:42;100505.84;;;22.07;53.22
21290;BME280;10804;48.988;2.408;2023-06-14T04:14:10;100502.44;;;22.05;53.25
21290;BME280;10804;48.988;2.408;2023-06-14T04:16:38;100500.03;;;22.02;52.94
21290;BME280;10804;48.988;2.408;2023-06-14T04:19:05;100505.59;;;21.99;52.93
21290;BME280;10804;48.988;2.408;2023-06-14T04:21:32;100510.03;;;21.99;53.18
21290;BME280;10804;48.988;2.408;2023-06-14T04:24:03;100503.66;;;22.01;53.27
21290;BME280;10804;48.988;2.408;2023-06-14T04:26:33;100506.53;;;21.98;53.00
21290;BME280;10804;48.988;2.408;2023-06-14T04:29:00;100516.22;;;21.99;53.23
21290;BME280;10804;48.988;2.408;2023-06-14T04:31:32;100516.31;;;21.98;53.15
21290;BME280;10804;48.988;2.408;2023-06-14T04:34:01;100519.94;;;21.97;53.09
21290;BME280;10804;48.988;2.408;2023-06-14T04:36:32;100520.03;;;21.95;53.33
21290;BME280;10804;48.988;2.408;2023-06-14T04:39:01;100524.72;;;21.92;53.37
21290;BME280;10804;48.988;2.408;2023-06-14T04:41:30;100529.22;;;21.91;53.46
21290;BME280;10804;48.988;2.408;2023-06-14T04:44:00;100534.53;;;21.91;53.36
21290;BME280;10804;48.988;2.408;2023-06-14T04:46:32;100535.34;;;21.92;53.46
21290;BME280;10804;48.988;2.408;2023-06-14T04:49:15;100529.44;;;21.88;53.41
21290;BME280;10804;48.988;2.408;2023-06-14T04:51:45;100532.81;;;21.90;53.48
21290;BME280;10804;48.988;2.408;2023-06-14T04:54:13;100542.72;;;21.88;53.60
21290;BME280;10804;48.988;2.408;2023-06-14T04:56:41;100532.31;;;21.85;53.44
21290;BME280;10804;48.988;2.408;2023-06-14T04:59:11;100536.69;;;21.86;53.45
21290;BME280;10804;48.988;2.408;2023-06-14T05:01:40;100539.22;;;21.88;53.28
21290;BME280;10804;48.988;2.408;2023-06-14T05:04:07;100538.38;;;21.87;53.55
21290;BME280;10804;48.988;2.408;2023-06-14T05:06:35;100536.44;;;21.89;53.45
21290;BME280;10804;48.988;2.408;2023-06-14T05:09:02;100539.22;;;21.88;53.44
21290;BME280;10804;48.988;2.408;2023-06-14T05:11:30;100534.75;;;21.88;53.43
21290;BME280;10804;48.988;2.408;2023-06-14T05:13:57;100541.97;;;21.86;53.63
21290;BME280;10804;48.988;2.408;2023-06-14T05:16:25;100539.09;;;21.89;53.44
21290;BME280;10804;48.988;2.408;2023-06-14T05:18:54;100545.59;;;21.85;53.72
21290;BME280;10804;48.988;2.408;2023-06-14T05:21:22;100542.94;;;21.85;53.63
21290;BME280;10804;48.988;2.408;2023-06-14T05:23:49;100543.91;;;21.84;53.66
21290;BME280;10804;48.988;2.408;2023-06-14T05:26:18;100538.81;;;21.81;53.65
21290;BME280;10804;48.988;2.408;2023-06-14T05:28:46;100547.53;;;21.83;53.58
21290;BME280;10804;48.988;2.408;2023-06-14T05:31:13;100544.47;;;21.77;53.87
21290;BME280;10804;48.988;2.408;2023-06-14T05:33:41;100542.69;;;21.77;54.00
21290;BME280;10804;48.988;2.408;2023-06-14T05:36:09;100543.28;;;21.81;53.68
21290;BME280;10804;48.988;2.408;2023-06-14T05:38:37;100551.13;;;21.82;53.89
21290;BME280;10804;48.988;2.408;2023-06-14T05:41:04;100555.22;;;21.75;53.95
21290;BME280;10804;48.988;2.408;2023-06-14T05:43:31;100550.41;;;21.80;53.91
21290;BME280;10804;48.988;2.408;2023-06-14T05:45:58;100547.28;;;21.86;53.95
21290;BME280;10804;48.988;2.408;2023-06-14T05:48:26;100549.22;;;21.84;53.99
21290;BME280;10804;48.988;2.408;2023-06-14T05:50:53;100557.69;;;21.89;53.84
21290;BME280;10804;48.988;2.408;2023-06-14T05:53:22;100555.03;;;21.89;53.70
21290;BME280;10804;48.988;2.408;2023-06-14T05:55:50;100552.97;;;21.93;53.66
21290;BME280;10804;48.988;2.408;2023-06-14T05:58:17;100557.13;;;21.97;53.76
21290;BME280;10804;48.988;2.408;2023-06-14T06:00:45;100552.25;;;21.91;53.77
21290;BME280;10804;48.988;2.408;2023-06-14T06:03:12;100559.78;;;21.97;53.89
21290;BME280;10804;48.988;2.408;2023-06-14T06:05:40;100554.34;;;21.98;53.57
21290;BME280;10804;48.988;2.408;2023-06-14T06:08:07;100555.69;;;22.04;53.58
21290;BME280;10804;48.988;2.408;2023-06-14T06:10:36;100561.63;;;22.07;53.27
21290;BME280;10804;48.988;2.408;2023-06-14T06:13:03;100570.22;;;22.11;53.40
21290;BME280;10804;48.988;2.408;2023-06-14T06:15:30;100568.78;;;22.18;53.41
21290;BME280;10804;48.988;2.408;2023-06-14T06:17:57;100567.94;;;22.17;53.35
21290;BME280;10804;48.988;2.408;2023-06-14T06:20:25;100567.94;;;22.17;53.32
21290;BME280;10804;48.988;2.408;2023-06-14T06:22:54;100568.16;;;22.14;53.54
21290;BME280;10804;48.988;2.408;2023-06-14T06:25:21;100576.88;;;22.16;53.55
21290;BME280;10804;48.988;2.408;2023-06-14T06:27:53;100577.13;;;22.24;53.35
21290;BME280;10804;48.988;2.408;2023-06-14T06:30:22;100570.59;;;22.28;53.16
21290;BME280;10804;48.988;2.408;2023-06-14T06:32:49;100580.78;;;22.34;53.15
21290;BME280;10804;48.988;2.408;2023-06-14T06:35:17;100578.84;;;22.36;53.13
21290;BME280;10804;48.988;2.408;2023-06-14T06:37:44;100582.03;;;22.41;52.99
21290;BME280;10804;48.988;2.408;2023-06-14T06:40:11;100578.19;;;22.45;52.88
21290;BME280;10804;48.988;2.408;2023-06-14T06:42:39;100579.88;;;22.46;52.81
21290;BME280;10804;48.988;2.408;2023-06-14T06:45:11;100587.59;;;22.49;53.16
21290;BME280;10804;48.988;2.408;2023-06-14T06:47:39;100588.13;;;22.54;52.68
21290;BME280;10804;48.988;2.408;2023-06-14T06:50:07;100580.97;;;22.55;52.67
21290;BME280;10804;48.988;2.408;2023-06-14T06:52:34;100593.78;;;22.61;52.83
21290;BME280;10804;48.988;2.408;2023-06-14T06:55:02;100594.50;;;22.63;52.61
21290;BME280;10804;48.988;2.408;2023-06-14T06:57:30;100601.41;;;22.65;52.83
21290;BME280;10804;48.988;2.408;2023-06-14T06:59:57;100594.91;;;22.69;52.97
21290;BME280;10804;48.988;2.408;2023-06-14T07:02:26;100603.50;;;22.73;52.69
21290;BME280;10804;48.988;2.408;2023-06-14T07:04:53;100603.50;;;22.73;52.72
21290;BME280;10804;48.988;2.408;2023-06-14T07:07:20;100610.25;;;22.77;52.62
21290;BME280;10804;48.988;2.408;2023-06-14T07:09:47;100610.66;;;22.83;52.92
21290;BME280;10804;48.988;2.408;2023-06-14T07:12:15;100612.34;;;22.84;52.72
21290;BME280;10804;48.988;2.408;2023-06-14T07:14:42;100608.44;;;22.88;52.50
21290;BME280;10804;48.988;2.408;2023-06-14T07:17:09;100620.56;;;22.92;52.50
21290;BME280;10804;48.988;2.408;2023-06-14T07:19:39;100623.69;;;22.97;52.46
21290;BME280;10804;48.988;2.408;2023-06-14T07:22:09;100623.22;;;23.03;52.45
21290;BME280;10804;48.988;2.408;2023-06-14T07:24:36;100621.06;;;23.08;52.39
21290;BME280;10804;48.988;2.408;2023-06-14T07:27:04;100619.81;;;23.12;52.37
21290;BME280;10804;48.988;2.408;2023-06-14T07:29:31;100625.78;;;23.16;52.68
21290;BME280;10804;48.988;2.408;2023-06-14T07:31:59;100634.38;;;23.19;52.75
21290;BME280;10804;48.988;2.408;2023-06-14T07:34:26;100629.53;;;23.24;52.42
21290;BME280;10804;48.988;2.408;2023-06-14T07:36:57;100634.88;;;23.24;52.61
21290;BME280;10804;48.988;2.408;2023-06-14T07:39:24;100630.88;;;23.30;52.54
21290;BME280;10804;48.988;2.408;2023-06-14T07:41:51;100635.97;;;23.33;52.83
21290;BME280;10804;48.988;2.408;2023-06-14T07:44:18;100635.81;;;23.34;52.78
21290;BME280;10804;48.988;2.408;2023-06-14T07:46:46;100635.44;;;23.39;52.73
21290;BME280;10804;48.988;2.408;2023-06-14T07:49:15;100643.06;;;23.43;53.26
21290;BME280;10804;48.988;2.408;2023-06-14T07:51:42;100645.63;;;23.45;53.22
21290;BME280;10804;48.988;2.408;2023-06-14T07:54:11;100651.53;;;23.48;53.22
21290;BME280;10804;48.988;2.408;2023-06-14T07:56:40;100656.66;;;23.51;53.37
21290;BME280;10804;48.988;2.408;2023-06-14T07:59:07;100653.72;;;23.54;52.94
21290;BME280;10804;48.988;2.408;2023-06-14T08:01:34;100652.50;;;23.58;53.44
21290;BME280;10804;48.988;2.408;2023-06-14T08:04:02;100646.94;;;23.61;53.11
21290;BME280;10804;48.988;2.408;2023-06-14T08:06:29;100657.22;;;23.66;52.93
21290;BME280;10804;48.988;2.408;2023-06-14T08:08:57;100655.16;;;23.69;53.41
21290;BME280;10804;48.988;2.408;2023-06-14T08:11:25;100653.22;;;23.71;53.35
21290;BME280;10804;48.988;2.408;2023-06-14T08:13:53;100656.59;;;23.73;52.87
21290;BME280;10804;48.988;2.408;2023-06-14T08:16:20;100649.19;;;23.77;53.33
21290;BME280;10804;48.988;2.408;2023-06-14T08:18:48;100650.53;;;23.82;53.41
21290;BME280;10804;48.988;2.408;2023-06-14T08:21:16;100646.66;;;23.86;53.29
21290;BME280;10804;48.988;2.408;2023-06-14T08:23:44;100662.16;;;23.92;53.45
21290;BME280;10804;48.988;2.408;2023-06-14T08:26:11;100665.41;;;23.96;53.24
21290;BME280;10804;48.988;2.408;2023-06-14T08:28:39;100660.69;;;23.99;53.39
21290;BME280;10804;48.988;2.408;2023-06-14T08:31:08;100658.63;;;24.03;53.23
21290;BME280;10804;48.988;2.408;2023-06-14T08:33:36;100664.53;;;24.06;53.30
21290;BME280;10804;48.988;2.408;2023-06-14T08:36:03;100661.63;;;24.09;53.22
21290;BME280;10804;48.988;2.408;2023-06-14T08:38:31;100660.63;;;24.10;52.96
21290;BME280;10804;48.988;2.408;2023-06-14T08:40:58;100661.84;;;24.17;53.35
21290;BME280;10804;48.988;2.408;2023-06-14T08:43:27;100661.59;;;24.20;53.44
21290;BME280;10804;48.988;2.408;2023-06-14T08:45:58;100668.34;;;24.24;53.21
21290;BME280;10804;48.988;2.408;2023-06-14T08:48:27;100660.09;;;24.27;53.21
21290;BME280;10804;48.988;2.408;2023-06-14T08:50:55;100665.06;;;24.32;53.52
21290;BME280;10804;48.988;2.408;2023-06-14T08:53:28;100663.94;;;24.34;53.59
21290;BME280;10804;48.988;2.408;2023-06-14T08:55:58;100666.09;;;24.40;53.47
21290;BME280;10804;48.988;2.408;2023-06-14T08:58:28;100666.81;;;24.42;53.45
21290;BME280;10804;48.988;2.408;2023-06-14T09:00:59;100668.38;;;24.45;53.47
21290;BME280;10804;48.988;2.408;2023-06-14T09:03:27;100662.66;;;24.49;53.03
21290;BME280;10804;48.988;2.408;2023-06-14T09:05:56;100663.41;;;24.51;53.09
21290;BME280;10804;48.988;2.408;2023-06-14T09:08:25;100669.44;;;24.53;52.76
21290;BME280;10804;48.988;2.408;2023-06-14T09:10:53;100661.94;;;24.58;53.15
21290;BME280;10804;48.988;2.408;2023-06-14T09:13:22;100664.22;;;24.63;53.14
21290;BME280;10804;48.988;2.408;2023-06-14T09:15:50;100673.63;;;24.67;53.17
21290;BME280;10804;48.988;2.408;2023-06-14T09:18:18;100666.22;;;24.70;53.13
21290;BME280;10804;48.988;2.408;2023-06-14T09:20:47;100665.00;;;24.74;53.13
21290;BME280;10804;48.988;2.408;2023-06-14T09:23:20;100669.34;;;24.75;53.40
21290;BME280;10804;48.988;2.408;2023-06-14T09:25:48;100671.75;;;24.78;52.84
21290;BME280;10804;48.988;2.408;2023-06-14T09:28:15;100681.19;;;24.82;53.09
21290;BME280;10804;48.988;2.408;2023-06-14T09:30:43;100683.19;;;24.89;53.23
21290;BME280;10804;48.988;2.408;2023-06-14T09:33:10;100683.06;;;24.91;53.29
21290;BME280;10804;48.988;2.408;2023-06-14T09:35:39;100681.81;;;24.95;52.80
21290;BME280;10804;48.988;2.408;2023-06-14T09:38:06;100687.16;;;24.95;52.33
21290;BME280;10804;48.988;2.408;2023-06-14T09:40:35;100670.03;;;24.97;52.67
21290;BME280;10804;48.988;2.408;2023-06-14T09:43:06;100678.63;;;25.01;52.15
21290;BME280;10804;48.988;2.408;2023-06-14T09:45:35;100683.56;;;25.05;52.70
21290;BME280;10804;48.988;2.408;2023-06-14T09:48:06;100673.63;;;25.07;52.54
21290;BME280;10804;48.988;2.408;2023-06-14T09:50:34;100681.25;;;25.12;52.70
21290;BME280;10804;48.988;2.408;2023-06-14T09:53:06;100686.31;;;25.15;52.23
21290;BME280;10804;48.988;2.408;2023-06-14T09:55:35;100688.56;;;25.19;52.46
21290;BME280;10804;48.988;2.408;2023-06-14T09:58:05;100676.81;;;25.22;52.82
21290;BME280;10804;48.988;2.408;2023-06-14T10:00:33;100688.91;;;25.26;52.57
21290;BME280;10804;48.988;2.408;2023-06-14T10:03:05;100686.00;;;25.29;52.63
21290;BME280;10804;48.988;2.408;2023-06-14T10:05:34;100686.00;;;25.29;52.66
21290;BME280;10804;48.988;2.408;2023-06-14T10:08:08;100697.97;;;25.34;52.63
21290;BME280;10804;48.988;2.408;2023-06-14T10:10:38;100684.31;;;25.37;52.36
21290;BME280;10804;48.988;2.408;2023-06-14T10:13:06;100682.22;;;25.41;52.47
21290;BME280;10804;48.988;2.408;2023-06-14T10:15:38;100680.13;;;25.44;51.97
21290;BME280;10804;48.988;2.408;2023-06-14T10:18:11;100683.25;;;25.49;52.13
21290;BME280;10804;48.988;2.408;2023-06-14T10:20:53;100682.16;;;25.52;51.94
21290;BME280;10804;48.988;2.408;2023-06-14T10:23:26;100688.19;;;25.54;51.81
21290;BME280;10804;48.988;2.408;2023-06-14T10:25:56;100675.53;;;25.56;52.00
21290;BME280;10804;48.988;2.408;2023-06-14T10:28:25;100683.03;;;25.62;51.84
21290;BME280;10804;48.988;2.408;2023-06-14T10:31:13;100677.44;;;25.65;51.63
21290;BME280;10804;48.988;2.408;2023-06-14T10:33:48;100691.19;;;25.70;51.12
21290;BME280;10804;48.988;2.408;2023-06-14T10:36:27;100684.75;;;25.72;51.57
21290;BME280;10804;48.988;2.408;2023-06-14T10:39:00;100689.81;;;25.75;51.75
21290;BME280;10804;48.988;2.408;2023-06-14T10:41:29;100680.69;;;25.78;50.32
21290;BME280;10804;48.988;2.408;2023-06-14T10:47:01;100674.66;;;25.85;50.33
21290;BME280;10804;48.988;2.408;2023-06-14T10:49:41;100682.53;;;25.87;49.95
21290;BME280;10804;48.988;2.408;2023-06-14T10:52:13;100665.97;;;25.93;49.48
21290;BME280;10804;48.988;2.408;2023-06-14T10:55:07;100682.88;;;25.93;50.03
21290;BME280;10804;48.988;2.408;2023-06-14T10:57:38;100683.44;;;25.97;50.23
21290;BME280;10804;48.988;2.408;2023-06-14T11:00:07;100673.44;;;25.99;50.59
21290;BME280;10804;48.988;2.408;2023-06-14T11:05:51;100676.97;;;26.09;50.21
21290;BME280;10804;48.988;2.408;2023-06-14T11:11:12;100673.63;;;26.16;49.42
21290;BME280;10804;48.988;2.408;2023-06-14T11:13:42;100669.09;;;26.17;49.32
21290;BME280;10804;48.988;2.408;2023-06-14T11:16:11;100673.06;;;26.22;49.26
21290;BME280;10804;48.988;2.408;2023-06-14T11:18:39;100670.22;;;26.24;50.13
21290;BME280;10804;48.988;2.408;2023-06-14T11:21:06;100666.31;;;26.28;50.09
21290;BME280;10804;48.988;2.408;2023-06-14T11:23:34;100666.00;;;26.31;49.97
21290;BME280;10804;48.988;2.408;2023-06-14T11:26:02;100662.09;;;26.35;50.45
21290;BME280;10804;48.988;2.408;2023-06-14T11:28:39;100657.31;;;26.38;50.40
21290;BME280;10804;48.988;2.408;2023-06-14T11:31:07;100658.81;;;26.41;49.11
21290;BME280;10804;48.988;2.408;2023-06-14T11:33:34;100650.53;;;26.44;49.76
21290;BME280;10804;48.988;2.408;2023-06-14T11:36:03;100652.78;;;26.48;49.40
21290;BME280;10804;48.988;2.408;2023-06-14T11:38:35;100652.50;;;26.51;49.74
21290;BME280;10804;48.988;2.408;2023-06-14T11:41:02;100645.06;;;26.55;49.67
21290;BME280;10804;48.988;2.408;2023-06-14T11:43:30;100650.84;;;26.60;50.12
21290;BME280;10804;48.988;2.408;2023-06-14T11:46:01;100655.75;;;26.64;48.58
21290;BME280;10804;48.988;2.408;2023-06-14T11:48:37;100652.94;;;26.66;49.85
21290;BME280;10804;48.988;2.408;2023-06-14T11:51:05;100653.34;;;26.71;49.09
21290;BME280;10804;48.988;2.408;2023-06-14T11:53:32;100649.41;;;26.75;49.66
21290;BME280;10804;48.988;2.408;2023-06-14T11:56:01;100651.09;;;26.76;49.50
21290;BME280;10804;48.988;2.408;2023-06-14T11:58:29;100642.63;;;26.80;49.92
21290;BME280;10804;48.988;2.408;2023-06-14T12:00:56;100645.84;;;26.84;49.56
21290;BME280;10804;48.988;2.408;2023-06-14T12:03:26;100652.47;;;26.89;49.94
21290;BME280;10804;48.988;2.408;2023-06-14T12:06:05;100656.56;;;26.93;49.79
21290;BME280;10804;48.988;2.408;2023-06-14T12:08:34;100642.88;;;26.96;49.74
21290;BME280;10804;48.988;2.408;2023-06-14T12:11:06;100653.13;;;27.01;50.22
21290;BME280;10804;48.988;2.408;2023-06-14T12:13:37;100634.13;;;27.04;48.97
21290;BME280;10804;48.988;2.408;2023-06-14T12:16:04;100640.84;;;27.08;49.38
21290;BME280;10804;48.988;2.408;2023-06-14T12:18:34;100638.91;;;27.10;49.69
21290;BME280;10804;48.988;2.408;2023-06-14T12:21:04;100646.34;;;27.16;49.48
21290;BME280;10804;48.988;2.408;2023-06-14T12:23:42;100646.91;;;27.19;49.36
21290;BME280;10804;48.988;2.408;2023-06-14T12:26:11;100649.44;;;27.21;49.51
21290;BME280;10804;48.988;2.408;2023-06-14T12:28:40;100641.66;;;27.27;49.40
21290;BME280;10804;48.988;2.408;2023-06-14T12:31:07;100641.22;;;27.32;49.44
21290;BME280;10804;48.988;2.408;2023-06-14T12:33:36;100644.31;;;27.37;49.35
21290;BME280;10804;48.988;2.408;2023-06-14T12:36:04;100648.38;;;27.41;49.46
21290;BME280;10804;48.988;2.408;2023-06-14T12:38:32;100643.56;;;27.44;49.25
21290;BME280;10804;48.988;2.408;2023-06-14T12:41:00;100644.81;;;27.50;49.32
21290;BME280;10804;48.988;2.408;2023-06-14T12:43:27;100642.69;;;27.53;48.91
21290;BME280;10804;48.988;2.408;2023-06-14T12:45:55;100644.91;;;27.58;49.03
21290;BME280;10804;48.988;2.408;2023-06-14T12:48:22;100651.38;;;27.65;49.22
21290;BME280;10804;48.988;2.408;2023-06-14T12:50:51;100642.00;;;27.69;48.90
21290;BME280;10804;48.988;2.408;2023-06-14T12:53:18;100648.50;;;27.76;48.52
21290;BME280;10804;48.988;2.408;2023-06-14T12:55:46;100640.84;;;27.81;48.74
21290;BME280;10804;48.988;2.408;2023-06-14T12:58:13;100640.25;;;27.87;48.21
21290;BME280;10804;48.988;2.408;2023-06-14T13:00:41;100635.25;;;27.92;48.43
21290;BME280;10804;48.988;2.408;2023-06-14T13:03:09;100643.84;;;27.95;48.48
21290;BME280;10804;48.988;2.408;2023-06-14T13:05:37;100643.09;;;28.03;48.39
21290;BME280;10804;48.988;2.408;2023-06-14T13:08:08;100641.78;;;28.07;48.63